createdAt,value
2019-03-13T00:02:29.325Z,7.80
2019-03-13T00:04:57.377Z,7.80
2019-03-13T00:07:25.524Z,7.80
2019-03-13T00:09:53.803Z,7.70
2019-03-13T00:12:21.980Z,7.50
2019-03-13T00:14:51.304Z,6.70
2019-03-13T00:17:19.392Z,6.10
2019-03-13T00:19:47.603Z,5.70
2019-03-13T00:22:15.653Z,5.40
2019-03-13T00:24:43.851Z,5.30
2019-03-13T00:27:12.333Z,5.20
2019-03-13T00:29:40.519Z,5.20
2019-03-13T00:32:11.255Z,5.20
2019-03-13T00:34:39.427Z,5.10
2019-03-13T00:37:07.640Z,5.10
2019-03-13T00:39:35.740Z,5.10
2019-03-13T00:42:05.934Z,5.10
2019-03-13T00:44:34.147Z,5.10
2019-03-13T00:47:02.286Z,5.10
2019-03-13T00:49:30.359Z,5.20
2019-03-13T00:51:58.725Z,5.30
2019-03-13T00:54:26.807Z,5.20
2019-03-13T00:56:54.917Z,5.20
2019-03-13T00:59:23.182Z,5.20
2019-03-13T01:02:22.565Z,5.30
2019-03-13T01:05:16.089Z,5.30
2019-03-13T01:07:44.262Z,5.30
2019-03-13T01:10:12.914Z,5.30
2019-03-13T01:12:41.075Z,5.40
2019-03-13T01:15:09.596Z,5.30
2019-03-13T01:17:39.052Z,5.30
2019-03-13T01:20:08.451Z,5.30
2019-03-13T01:22:36.748Z,5.30
2019-03-13T01:25:05.446Z,5.30
2019-03-13T01:27:33.645Z,5.30
2019-03-13T01:30:01.770Z,5.40
2019-03-13T01:32:49.649Z,5.40
2019-03-13T01:35:49.504Z,5.40
2019-03-13T01:38:17.689Z,5.40
2019-03-13T01:40:45.819Z,5.40
2019-03-13T01:43:14.081Z,5.40
2019-03-13T01:45:42.276Z,5.40
2019-03-13T01:48:10.403Z,5.50
2019-03-13T01:50:39.451Z,5.50
2019-03-13T01:53:07.541Z,5.40
2019-03-13T01:55:35.966Z,5.40
2019-03-13T01:58:04.224Z,5.40
2019-03-13T02:00:32.967Z,5.50
2019-03-13T02:03:01.185Z,5.50
2019-03-13T02:05:29.271Z,5.50
2019-03-13T02:07:57.455Z,5.50
2019-03-13T02:10:25.550Z,5.50
2019-03-13T02:12:53.669Z,5.50
2019-03-13T02:15:21.774Z,5.50
2019-03-13T02:17:49.839Z,5.50
2019-03-13T02:20:18.093Z,5.60
2019-03-13T02:22:46.289Z,5.60
2019-03-13T02:25:15.945Z,5.60
2019-03-13T02:27:44.004Z,5.60
2019-03-13T02:30:13.770Z,5.60
2019-03-13T02:32:41.981Z,5.70
2019-03-13T02:35:10.210Z,5.70
2019-03-13T02:37:38.447Z,5.70
2019-03-13T02:40:08.331Z,5.70
2019-03-13T02:42:36.657Z,5.70
2019-03-13T02:45:05.899Z,5.80
2019-03-13T02:47:35.361Z,5.70
2019-03-13T02:50:20.065Z,5.70
2019-03-13T02:52:48.305Z,5.70
2019-03-13T02:55:16.440Z,5.70
2019-03-13T02:57:44.563Z,5.70
2019-03-13T03:00:15.325Z,5.80
2019-03-13T03:02:55.351Z,5.70
2019-03-13T03:05:23.468Z,5.70
2019-03-13T03:07:51.818Z,5.70
2019-03-13T03:10:19.857Z,5.70
2019-03-13T03:12:47.883Z,5.70
2019-03-13T03:15:17.346Z,5.70
2019-03-13T03:17:45.732Z,5.70
2019-03-13T03:20:16.529Z,5.70
2019-03-13T03:22:44.594Z,5.70
2019-03-13T03:25:13.740Z,5.70
2019-03-13T03:27:41.857Z,5.80
2019-03-13T03:30:15.253Z,5.80
2019-03-13T03:32:43.422Z,5.90
2019-03-13T03:35:11.490Z,5.90
2019-03-13T03:37:39.653Z,5.90
2019-03-13T03:40:09.899Z,5.80
2019-03-13T03:42:37.967Z,5.80
2019-03-13T03:45:07.005Z,5.80
2019-03-13T03:47:35.061Z,5.80
2019-03-13T03:50:04.075Z,5.90
2019-03-13T03:52:32.194Z,5.80
2019-03-13T03:55:00.615Z,5.80
2019-03-13T03:57:28.736Z,5.80
2019-03-13T03:59:56.921Z,5.80
2019-03-13T04:02:25.043Z,5.80
2019-03-13T04:04:53.388Z,5.80
2019-03-13T04:07:21.792Z,5.80
2019-03-13T04:09:50.111Z,5.90
2019-03-13T04:12:18.166Z,5.90
2019-03-13T04:14:46.305Z,5.80
2019-03-13T04:17:14.353Z,5.80
2019-03-13T04:19:42.444Z,5.90
2019-03-13T04:22:10.722Z,5.80
2019-03-13T04:24:38.799Z,5.80
2019-03-13T04:27:06.840Z,5.80
2019-03-13T04:29:34.956Z,5.90
2019-03-13T04:32:03.132Z,5.80
2019-03-13T04:34:31.223Z,5.90
2019-03-13T04:36:59.348Z,5.90
2019-03-13T04:39:27.650Z,5.90
2019-03-13T04:41:55.843Z,5.90
2019-03-13T04:44:23.926Z,6.00
2019-03-13T04:46:52.018Z,6.00
2019-03-13T04:49:20.163Z,6.00
2019-03-13T04:51:48.211Z,6.00
2019-03-13T04:54:16.292Z,5.90
2019-03-13T04:56:44.303Z,5.90
2019-03-13T04:59:13.365Z,5.90
2019-03-13T05:01:41.429Z,5.90
2019-03-13T05:04:09.561Z,5.90
2019-03-13T05:06:37.723Z,5.90
2019-03-13T05:09:23.663Z,5.90
2019-03-13T05:11:51.737Z,5.90
2019-03-13T05:14:19.800Z,5.90
2019-03-13T05:16:48.081Z,5.90
2019-03-13T05:19:16.350Z,5.90
2019-03-13T05:21:44.494Z,5.90
2019-03-13T05:24:12.631Z,5.90
2019-03-13T05:26:40.749Z,5.90
2019-03-13T05:29:08.816Z,6.00
2019-03-13T05:31:36.921Z,6.10
2019-03-13T05:34:05.107Z,6.10
2019-03-13T05:36:33.243Z,6.10
2019-03-13T05:39:04.776Z,6.10
2019-03-13T05:41:33.195Z,6.10
2019-03-13T05:44:01.307Z,6.10
2019-03-13T05:46:29.395Z,6.00
2019-03-13T05:48:57.510Z,6.00
2019-03-13T05:51:25.576Z,6.10
2019-03-13T05:53:53.680Z,6.10
2019-03-13T05:56:21.801Z,6.10
2019-03-13T05:58:49.981Z,6.10
2019-03-13T06:01:18.217Z,6.10
2019-03-13T06:03:46.355Z,6.20
2019-03-13T06:06:14.422Z,6.20
2019-03-13T06:08:42.516Z,6.20
2019-03-13T06:11:10.544Z,6.20
2019-03-13T06:13:38.828Z,6.20
2019-03-13T06:16:07.035Z,6.20
2019-03-13T06:18:35.168Z,6.20
2019-03-13T06:21:03.353Z,6.30
2019-03-13T06:23:32.401Z,6.20
2019-03-13T06:26:00.460Z,6.30
2019-03-13T06:28:28.520Z,6.30
2019-03-13T06:30:56.646Z,6.30
2019-03-13T06:33:24.702Z,6.30
2019-03-13T06:35:52.764Z,6.30
2019-03-13T06:38:20.904Z,6.40
2019-03-13T06:40:48.946Z,6.40
2019-03-13T06:43:17.019Z,6.50
2019-03-13T06:45:45.217Z,6.50
2019-03-13T06:48:13.696Z,6.50
2019-03-13T06:50:41.841Z,6.40
2019-03-13T06:53:09.930Z,6.40
2019-03-13T06:55:37.962Z,6.40
2019-03-13T06:58:06.257Z,6.50
2019-03-13T07:00:57.087Z,6.50
2019-03-13T07:03:56.933Z,6.50
2019-03-13T07:06:43.031Z,6.40
2019-03-13T07:09:33.634Z,6.40
2019-03-13T07:12:39.163Z,6.40
2019-03-13T07:15:36.454Z,6.40
2019-03-13T07:18:13.409Z,6.40
2019-03-13T07:21:19.022Z,6.40
2019-03-13T07:24:02.717Z,6.40
2019-03-13T07:26:53.284Z,6.50
2019-03-13T07:29:39.619Z,6.50
2019-03-13T07:32:13.366Z,6.50
2019-03-13T07:34:51.841Z,6.50
2019-03-13T07:37:29.398Z,6.50
2019-03-13T07:40:22.853Z,6.60
2019-03-13T07:43:22.495Z,6.50
2019-03-13T07:46:16.047Z,6.60
2019-03-13T07:49:04.811Z,6.60
2019-03-13T07:51:55.514Z,6.70
2019-03-13T07:54:45.927Z,6.70
2019-03-13T07:57:40.679Z,6.60
2019-03-13T08:00:38.129Z,6.60
2019-03-13T08:03:15.278Z,6.60
2019-03-13T08:06:05.701Z,6.60
2019-03-13T08:08:44.279Z,6.70
2019-03-13T08:11:37.984Z,6.70
2019-03-13T08:14:28.636Z,6.80
2019-03-13T08:17:18.841Z,6.80
2019-03-13T08:20:21.614Z,6.80
2019-03-13T08:23:08.765Z,6.80
2019-03-13T08:26:02.053Z,6.80
2019-03-13T08:28:49.753Z,6.80
2019-03-13T08:31:28.626Z,6.80
2019-03-13T08:34:25.385Z,6.80
2019-03-13T08:37:18.215Z,6.80
2019-03-13T08:40:52.457Z,6.90
2019-03-13T08:43:38.387Z,6.90
2019-03-13T08:46:26.161Z,6.90
2019-03-13T08:49:26.008Z,6.90
2019-03-13T08:52:03.324Z,6.90
2019-03-13T08:54:59.842Z,7.00
2019-03-13T08:57:47.631Z,7.00
2019-03-13T09:00:35.261Z,7.10
2019-03-13T09:03:17.717Z,7.10
2019-03-13T09:06:08.242Z,7.10
2019-03-13T09:09:01.772Z,7.10
2019-03-13T09:11:49.840Z,7.10
2019-03-13T09:14:37.499Z,7.20
2019-03-13T09:17:31.013Z,7.20
2019-03-13T09:20:18.813Z,7.20
2019-03-13T09:23:05.296Z,7.20
2019-03-13T09:25:51.295Z,7.20
2019-03-13T09:28:38.979Z,7.20
2019-03-13T09:31:18.313Z,7.20
2019-03-13T09:33:51.474Z,7.20
2019-03-13T09:36:32.304Z,7.20
2019-03-13T09:39:28.719Z,7.30
2019-03-13T09:42:31.351Z,7.30
2019-03-13T09:45:20.096Z,7.30
2019-03-13T09:48:06.137Z,7.30
2019-03-13T09:50:45.106Z,7.30
2019-03-13T09:53:31.402Z,7.30
2019-03-13T09:56:17.541Z,7.40
2019-03-13T09:59:23.116Z,7.50
2019-03-13T10:02:00.580Z,7.40
2019-03-13T10:04:34.934Z,7.50
2019-03-13T10:07:20.956Z,7.60
2019-03-13T10:10:04.768Z,7.60
2019-03-13T10:12:42.231Z,7.50
2019-03-13T10:15:20.193Z,7.40
2019-03-13T10:18:10.490Z,7.40
2019-03-13T10:20:59.135Z,7.40
2019-03-13T10:23:46.741Z,7.40
2019-03-13T10:26:39.241Z,7.40
2019-03-13T10:29:29.864Z,7.40
2019-03-13T10:32:04.379Z,7.40
2019-03-13T10:34:50.911Z,7.40
2019-03-13T10:37:44.504Z,7.40
2019-03-13T10:40:37.538Z,7.50
2019-03-13T10:43:34.238Z,7.40
2019-03-13T10:46:20.169Z,7.40
2019-03-13T10:49:04.177Z,7.30
2019-03-13T10:51:47.014Z,7.30
2019-03-13T10:54:37.792Z,7.20
2019-03-13T10:57:25.722Z,7.20
2019-03-13T11:00:16.463Z,7.10
2019-03-13T11:03:06.863Z,7.00
2019-03-13T11:05:52.968Z,7.00
2019-03-13T11:08:29.165Z,7.00
2019-03-13T11:11:03.501Z,7.00
2019-03-13T11:13:39.723Z,6.90
2019-03-13T11:16:27.393Z,6.90
2019-03-13T11:19:08.284Z,6.80
2019-03-13T11:21:54.213Z,6.60
2019-03-13T11:24:30.195Z,6.60
2019-03-13T11:27:20.871Z,6.50
2019-03-13T11:30:17.143Z,6.40
2019-03-13T11:33:07.584Z,6.40
2019-03-13T11:36:13.336Z,6.40
2019-03-13T11:39:07.115Z,6.50
2019-03-13T11:41:52.960Z,6.50
2019-03-13T11:44:52.941Z,6.60
2019-03-13T11:47:41.696Z,6.60
2019-03-13T11:50:15.347Z,6.60
2019-03-13T11:53:08.985Z,6.60
2019-03-13T11:55:46.550Z,6.60
2019-03-13T11:58:34.296Z,6.60
2019-03-13T12:01:22.089Z,6.60
2019-03-13T12:04:08.766Z,6.60
2019-03-13T12:06:56.527Z,6.60
2019-03-13T12:09:57.408Z,6.60
2019-03-13T12:12:51.126Z,6.70
2019-03-13T12:15:25.270Z,6.70
2019-03-13T12:18:11.510Z,6.70
2019-03-13T12:20:49.517Z,6.80
2019-03-13T12:23:26.864Z,6.80
2019-03-13T12:26:14.490Z,6.90
2019-03-13T12:29:01.877Z,6.90
2019-03-13T12:31:47.943Z,7.00
2019-03-13T12:34:38.975Z,7.10
2019-03-13T12:37:22.562Z,7.20
2019-03-13T12:40:16.889Z,7.20
2019-03-13T12:42:57.524Z,7.30
2019-03-13T12:45:45.305Z,7.40
2019-03-13T12:48:27.364Z,7.50
2019-03-13T12:51:13.616Z,7.60
2019-03-13T12:53:58.735Z,7.70
2019-03-13T12:56:40.053Z,7.70
2019-03-13T12:59:17.273Z,7.70
2019-03-13T13:02:14.249Z,7.70
2019-03-13T13:05:02.184Z,7.70
2019-03-13T13:07:56.279Z,7.70
2019-03-13T13:10:43.757Z,7.70
2019-03-13T13:13:45.294Z,7.60
2019-03-13T13:19:03.806Z,7.70
2019-03-13T13:21:31.961Z,7.70
2019-03-13T13:24:00.158Z,7.70
2019-03-13T13:26:28.314Z,7.70
2019-03-13T13:28:56.560Z,7.70
2019-03-13T13:31:24.731Z,7.70
2019-03-13T13:33:53.147Z,7.80
2019-03-13T13:36:21.386Z,7.90
2019-03-13T13:38:49.729Z,7.90
2019-03-13T13:41:19.170Z,7.90
2019-03-13T13:43:47.389Z,7.90
2019-03-13T13:46:38.368Z,8.00
2019-03-13T13:49:06.835Z,8.10
2019-03-13T13:51:35.010Z,8.00
2019-03-13T13:54:03.414Z,8.10
2019-03-13T13:56:31.757Z,8.00
2019-03-13T13:58:59.872Z,8.00
2019-03-13T14:01:28.120Z,8.00
2019-03-13T14:03:56.191Z,8.00
2019-03-13T14:06:24.536Z,8.00
2019-03-13T14:08:52.634Z,8.00
2019-03-13T14:11:21.898Z,7.90
2019-03-13T14:13:50.013Z,7.90
2019-03-13T14:16:18.182Z,7.90
2019-03-13T14:18:46.262Z,7.90
2019-03-13T14:21:14.329Z,7.80
2019-03-13T14:23:42.522Z,7.80
2019-03-13T14:26:10.619Z,7.80
2019-03-13T14:28:38.723Z,7.80
2019-03-13T14:31:06.964Z,7.80
2019-03-13T14:33:35.213Z,7.70
2019-03-13T14:36:03.411Z,7.70
2019-03-13T14:38:31.703Z,7.60
2019-03-13T14:41:00.165Z,7.60
2019-03-13T14:43:28.274Z,7.60
2019-03-13T14:45:56.331Z,7.60
2019-03-13T14:48:24.376Z,7.60
2019-03-13T14:50:52.544Z,7.60
2019-03-13T14:53:20.572Z,7.60
2019-03-13T14:55:48.649Z,7.50
2019-03-13T14:58:16.790Z,7.40
2019-03-13T15:00:44.868Z,7.40
2019-03-13T15:03:13.152Z,7.30
2019-03-13T15:05:41.318Z,7.30
2019-03-13T15:08:09.348Z,7.30
2019-03-13T15:10:37.428Z,7.20
2019-03-13T15:13:05.628Z,7.00
2019-03-13T15:15:33.818Z,6.90
2019-03-13T15:18:01.893Z,6.80
2019-03-13T15:20:30.022Z,6.70
2019-03-13T15:22:58.150Z,6.70
2019-03-13T15:25:26.261Z,6.60
2019-03-13T15:27:54.539Z,6.60
2019-03-13T15:30:22.844Z,6.30
2019-03-13T15:32:51.020Z,6.20
2019-03-13T15:35:19.238Z,6.10
2019-03-13T15:37:47.311Z,6.10
2019-03-13T15:40:15.412Z,6.20
2019-03-13T15:42:43.854Z,6.30
2019-03-13T15:45:15.022Z,6.40
2019-03-13T15:47:43.425Z,6.40
2019-03-13T15:50:13.983Z,6.40
2019-03-13T15:52:42.844Z,6.40
2019-03-13T15:55:11.973Z,6.40
2019-03-13T15:57:41.495Z,6.40
2019-03-13T16:00:18.251Z,6.50
2019-03-13T16:02:46.514Z,6.60
2019-03-13T16:05:16.251Z,6.60
2019-03-13T16:07:44.312Z,6.60
2019-03-13T16:10:13.569Z,6.70
2019-03-13T16:12:41.812Z,6.70
2019-03-13T16:15:13.903Z,6.60
2019-03-13T16:17:42.222Z,6.60
2019-03-13T16:20:12.049Z,6.70
2019-03-13T16:22:41.092Z,6.90
2019-03-13T16:25:10.021Z,7.00
2019-03-13T16:27:41.037Z,7.00
2019-03-13T16:30:13.967Z,6.90
2019-03-13T16:32:44.267Z,6.80
2019-03-13T16:35:12.333Z,6.70
2019-03-13T16:37:40.494Z,6.60
2019-03-13T16:40:12.069Z,6.50
2019-03-13T16:42:40.216Z,6.50
2019-03-13T16:45:09.714Z,6.40
2019-03-13T16:47:37.762Z,6.30
2019-03-13T16:50:08.421Z,6.30
2019-03-13T16:52:36.711Z,6.30
2019-03-13T16:55:07.203Z,6.20
2019-03-13T16:57:35.319Z,6.20
2019-03-13T17:00:08.200Z,6.20
2019-03-13T17:02:36.909Z,6.10
2019-03-13T17:05:05.877Z,6.10
2019-03-13T17:07:33.975Z,6.10
2019-03-13T17:10:02.061Z,6.00
2019-03-13T17:12:31.347Z,6.00
2019-03-13T17:14:59.585Z,6.00
2019-03-13T17:17:27.787Z,6.00
2019-03-13T17:19:55.898Z,5.90
2019-03-13T17:22:24.117Z,5.90
2019-03-13T17:24:52.800Z,5.90
2019-03-13T17:27:22.398Z,5.80
2019-03-13T17:29:50.827Z,5.80
2019-03-13T17:32:18.919Z,5.90
2019-03-13T17:34:48.071Z,5.90
2019-03-13T17:37:16.202Z,5.90
2019-03-13T17:39:44.257Z,5.90
2019-03-13T17:42:12.492Z,5.90
2019-03-13T17:44:40.532Z,5.90
2019-03-13T17:47:11.228Z,6.00
2019-03-13T17:49:39.319Z,5.90
2019-03-13T17:52:08.500Z,5.90
2019-03-13T17:54:36.620Z,5.90
2019-03-13T17:57:04.757Z,5.90
2019-03-13T17:59:33.171Z,6.00
2019-03-13T18:02:01.282Z,6.00
2019-03-13T18:04:29.657Z,6.00
2019-03-13T18:06:59.343Z,6.00
2019-03-13T18:09:27.587Z,6.00
2019-03-13T18:11:55.615Z,6.10
2019-03-13T18:14:23.999Z,6.00
2019-03-13T18:16:52.202Z,6.00
2019-03-13T18:19:20.402Z,6.00
2019-03-13T18:21:48.465Z,6.00
2019-03-13T18:24:16.651Z,6.00
2019-03-13T18:26:44.686Z,6.00
2019-03-13T18:29:13.096Z,6.10
2019-03-13T18:31:41.177Z,6.10
2019-03-13T18:34:09.331Z,6.10
2019-03-13T18:36:37.532Z,6.10
2019-03-13T18:39:05.919Z,6.20
2019-03-13T18:41:35.716Z,6.20
2019-03-13T18:44:03.764Z,6.20
2019-03-13T18:46:31.883Z,6.30
2019-03-13T18:48:59.974Z,6.30
2019-03-13T18:51:28.066Z,6.30
2019-03-13T18:53:56.116Z,6.30
2019-03-13T18:56:24.167Z,6.30
2019-03-13T18:58:52.426Z,6.30
2019-03-13T19:01:20.628Z,6.30
2019-03-13T19:03:48.797Z,6.30
2019-03-13T19:06:16.997Z,6.40
2019-03-13T19:08:45.134Z,6.40
2019-03-13T19:11:13.240Z,6.40
2019-03-13T19:13:41.416Z,6.40
2019-03-13T19:16:09.499Z,6.40
2019-03-13T19:18:37.511Z,6.40
2019-03-13T19:21:05.890Z,6.40
2019-03-13T19:23:34.096Z,6.40
2019-03-13T19:26:02.858Z,6.30
2019-03-13T19:28:31.605Z,6.30
2019-03-13T19:30:59.843Z,6.30
2019-03-13T19:33:27.963Z,6.40
2019-03-13T19:35:56.034Z,6.30
2019-03-13T19:38:24.333Z,6.30
2019-03-13T19:40:52.434Z,6.30
2019-03-13T19:43:20.649Z,6.30
2019-03-13T19:45:48.802Z,6.40
2019-03-13T19:48:16.856Z,6.40
2019-03-13T19:50:45.114Z,6.30
2019-03-13T19:53:13.429Z,6.30
2019-03-13T19:55:41.685Z,6.30
2019-03-13T19:58:10.289Z,6.20
2019-03-13T20:00:38.513Z,6.20
2019-03-13T20:03:07.432Z,6.20
2019-03-13T20:05:45.486Z,6.20
2019-03-13T20:08:05.769Z,6.30
2019-03-13T20:10:33.800Z,6.20
2019-03-13T20:13:01.982Z,6.30
2019-03-13T20:15:30.170Z,6.30
2019-03-13T20:18:00.592Z,6.30
2019-03-13T20:20:28.712Z,6.30
2019-03-13T20:22:58.168Z,6.40
2019-03-13T20:25:26.237Z,6.40
2019-03-13T20:27:55.144Z,6.40
2019-03-13T20:30:23.600Z,6.30
2019-03-13T20:32:51.762Z,6.30
2019-03-13T20:35:21.034Z,6.30
2019-03-13T20:37:49.088Z,6.40
2019-03-13T20:40:19.075Z,6.40
2019-03-13T20:42:47.372Z,6.40
2019-03-13T20:45:18.579Z,6.40
2019-03-13T20:47:46.822Z,6.40
2019-03-13T20:50:15.036Z,6.40
2019-03-13T20:52:45.680Z,6.40
2019-03-13T20:55:13.600Z,6.40
2019-03-13T20:57:41.653Z,6.40
2019-03-13T21:00:14.064Z,6.40
2019-03-13T21:02:42.235Z,6.50
2019-03-13T21:05:12.311Z,6.50
2019-03-13T21:07:40.542Z,6.50
2019-03-13T21:10:09.939Z,6.50
2019-03-13T21:12:38.635Z,6.50
2019-03-13T21:15:08.424Z,6.50
2019-03-13T21:17:37.048Z,6.50
2019-03-13T21:20:06.111Z,6.50
2019-03-13T21:22:34.262Z,6.50
2019-03-13T21:25:02.654Z,6.50
2019-03-13T21:27:31.020Z,6.50
2019-03-13T21:29:59.228Z,6.50
2019-03-13T21:32:27.374Z,6.50
2019-03-13T21:34:55.413Z,6.50
2019-03-13T21:37:23.623Z,6.50
2019-03-13T21:39:52.790Z,6.50
2019-03-13T21:42:20.906Z,6.50
2019-03-13T21:44:49.097Z,6.50
2019-03-13T21:47:17.240Z,6.50
2019-03-13T21:49:45.530Z,6.50
2019-03-13T21:52:13.645Z,6.50
2019-03-13T21:54:42.789Z,6.50
2019-03-13T21:57:10.819Z,6.60
2019-03-13T21:59:38.995Z,6.50
2019-03-13T22:02:07.263Z,6.40
2019-03-13T22:04:36.146Z,6.40
2019-03-13T22:07:04.427Z,6.40
2019-03-13T22:09:32.608Z,6.30
2019-03-13T22:12:00.767Z,6.30
2019-03-13T22:14:28.994Z,6.30
2019-03-13T22:16:57.282Z,6.30
2019-03-13T22:19:25.419Z,6.30
2019-03-13T22:21:54.660Z,6.30
2019-03-13T22:24:23.065Z,6.30
2019-03-13T22:26:51.528Z,6.30
2019-03-13T22:29:19.870Z,6.30
2019-03-13T22:31:49.538Z,6.20
2019-03-13T22:34:17.614Z,6.20
2019-03-13T22:36:46.812Z,6.20
2019-03-13T22:39:14.882Z,6.20
2019-03-13T22:41:43.074Z,6.20
2019-03-13T22:44:12.199Z,6.20
2019-03-13T22:46:40.280Z,6.30
2019-03-13T22:49:08.391Z,6.30
2019-03-13T22:51:36.746Z,6.30
2019-03-13T22:54:05.046Z,6.20
2019-03-13T22:56:33.303Z,6.20
2019-03-13T22:59:01.419Z,6.20
2019-03-13T23:01:30.910Z,6.10
2019-03-13T23:03:59.452Z,6.10
2019-03-13T23:06:27.688Z,6.10
2019-03-13T23:08:55.878Z,6.20
2019-03-13T23:11:23.945Z,6.10
2019-03-13T23:13:52.230Z,6.20
2019-03-13T23:16:23.554Z,6.20
2019-03-13T23:18:52.706Z,6.30
2019-03-13T23:21:21.018Z,6.30
2019-03-13T23:23:52.089Z,6.40
2019-03-13T23:26:20.409Z,6.40
2019-03-13T23:28:48.743Z,6.30
2019-03-13T23:31:17.027Z,6.40
2019-03-13T23:33:45.337Z,6.30
2019-03-13T23:36:13.522Z,6.30
2019-03-13T23:38:41.756Z,6.40
2019-03-13T23:41:10.618Z,6.40
2019-03-13T23:43:39.686Z,6.40
2019-03-13T23:46:07.958Z,6.40
2019-03-13T23:48:36.182Z,6.40
2019-03-13T23:51:04.498Z,6.40
2019-03-13T23:53:32.728Z,6.40
2019-03-13T23:56:00.860Z,6.40
2019-03-13T23:58:30.147Z,6.40
